sensor_id;sensor_type;location;lat;lon;timestamp;P1;durP1;ratioP1;P2;durP2;ratioP2
68256;SDS011;55069;51.568;4.656;2023-02-15T00:01:32;74.70;;;35.22;;
68256;SDS011;55069;51.568;4.656;2023-02-15T00:03:58;68.25;;;35.70;;
68256;SDS011;55069;51.568;4.656;2023-02-15T00:06:23;77.93;;;35.07;;
68256;SDS011;55069;51.568;4.656;2023-02-15T00:08:49;73.32;;;35.35;;
68256;SDS011;55069;51.568;4.656;2023-02-15T00:11:16;72.10;;;36.20;;
68256;SDS011;55069;51.568;4.656;2023-02-15T00:14:07;74.63;;;35.72;;
68256;SDS011;55069;51.568;4.656;2023-02-15T00:16:44;65.53;;;33.80;;
68256;SDS011;55069;51.568;4.656;2023-02-15T00:19:10;77.82;;;37.22;;
68256;SDS011;55069;51.568;4.656;2023-02-15T00:21:37;67.70;;;34.78;;
68256;SDS011;55069;51.568;4.656;2023-02-15T00:24:04;74.20;;;37.60;;
68256;SDS011;55069;51.568;4.656;2023-02-15T00:26:31;61.35;;;34.10;;
68256;SDS011;55069;51.568;4.656;2023-02-15T00:28:57;67.65;;;33.00;;
68256;SDS011;55069;51.568;4.656;2023-02-15T00:31:26;64.50;;;32.17;;
68256;SDS011;55069;51.568;4.656;2023-02-15T00:33:54;63.67;;;32.80;;
68256;SDS011;55069;51.568;4.656;2023-02-15T00:36:20;63.30;;;32.65;;
68256;SDS011;55069;51.568;4.656;2023-02-15T00:38:47;64.77;;;33.37;;
68256;SDS011;55069;51.568;4.656;2023-02-15T00:41:13;62.47;;;32.67;;
68256;SDS011;55069;51.568;4.656;2023-02-15T00:43:38;67.23;;;34.50;;
68256;SDS011;55069;51.568;4.656;2023-02-15T00:46:04;63.03;;;34.70;;
68256;SDS011;55069;51.568;4.656;2023-02-15T00:48:30;66.50;;;32.70;;
68256;SDS011;55069;51.568;4.656;2023-02-15T00:50:57;70.90;;;33.83;;
68256;SDS011;55069;51.568;4.656;2023-02-15T00:53:24;66.57;;;33.20;;
68256;SDS011;55069;51.568;4.656;2023-02-15T00:55:51;64.90;;;33.55;;
68256;SDS011;55069;51.568;4.656;2023-02-15T00:58:17;64.33;;;34.07;;
68256;SDS011;55069;51.568;4.656;2023-02-15T01:00:44;71.25;;;34.03;;
68256;SDS011;55069;51.568;4.656;2023-02-15T01:03:11;63.80;;;34.67;;
68256;SDS011;55069;51.568;4.656;2023-02-15T01:05:37;75.32;;;36.40;;
68256;SDS011;55069;51.568;4.656;2023-02-15T01:08:03;73.55;;;35.45;;
68256;SDS011;55069;51.568;4.656;2023-02-15T01:10:29;75.43;;;35.00;;
68256;SDS011;55069;51.568;4.656;2023-02-15T01:12:56;64.03;;;31.70;;
68256;SDS011;55069;51.568;4.656;2023-02-15T01:15:22;73.53;;;35.65;;
68256;SDS011;55069;51.568;4.656;2023-02-15T01:17:48;71.65;;;34.30;;
68256;SDS011;55069;51.568;4.656;2023-02-15T01:20:21;66.27;;;33.03;;
68256;SDS011;55069;51.568;4.656;2023-02-15T01:22:50;67.45;;;33.47;;
68256;SDS011;55069;51.568;4.656;2023-02-15T01:25:16;69.60;;;32.28;;
68256;SDS011;55069;51.568;4.656;2023-02-15T01:27:42;61.47;;;33.00;;
68256;SDS011;55069;51.568;4.656;2023-02-15T01:30:08;62.73;;;31.63;;
68256;SDS011;55069;51.568;4.656;2023-02-15T01:32:34;67.30;;;33.17;;
68256;SDS011;55069;51.568;4.656;2023-02-15T01:35:00;73.87;;;35.23;;
68256;SDS011;55069;51.568;4.656;2023-02-15T01:37:26;73.05;;;34.35;;
68256;SDS011;55069;51.568;4.656;2023-02-15T01:39:52;68.73;;;33.40;;
68256;SDS011;55069;51.568;4.656;2023-02-15T01:42:22;71.72;;;34.90;;
68256;SDS011;55069;51.568;4.656;2023-02-15T01:44:52;72.35;;;34.08;;
68256;SDS011;55069;51.568;4.656;2023-02-15T01:48:10;72.53;;;35.15;;
68256;SDS011;55069;51.568;4.656;2023-02-15T01:50:37;68.68;;;32.85;;
68256;SDS011;55069;51.568;4.656;2023-02-15T01:53:08;75.10;;;33.95;;
68256;SDS011;55069;51.568;4.656;2023-02-15T01:55:40;70.67;;;33.10;;
68256;SDS011;55069;51.568;4.656;2023-02-15T01:58:11;67.90;;;32.65;;
68256;SDS011;55069;51.568;4.656;2023-02-15T02:00:38;77.55;;;33.53;;
68256;SDS011;55069;51.568;4.656;2023-02-15T02:03:03;65.87;;;32.83;;
68256;SDS011;55069;51.568;4.656;2023-02-15T02:05:29;74.22;;;34.67;;
68256;SDS011;55069;51.568;4.656;2023-02-15T02:07:57;75.73;;;34.63;;
68256;SDS011;55069;51.568;4.656;2023-02-15T02:10:25;66.63;;;32.28;;
68256;SDS011;55069;51.568;4.656;2023-02-15T02:13:01;75.35;;;34.28;;
68256;SDS011;55069;51.568;4.656;2023-02-15T02:15:52;89.28;;;34.72;;
68256;SDS011;55069;51.568;4.656;2023-02-15T02:23:53;66.35;;;31.38;;
68256;SDS011;55069;51.568;4.656;2023-02-15T02:32:17;63.80;;;31.35;;
68256;SDS011;55069;51.568;4.656;2023-02-15T02:35:11;71.00;;;33.33;;
68256;SDS011;55069;51.568;4.656;2023-02-15T02:40:43;67.82;;;32.55;;
68256;SDS011;55069;51.568;4.656;2023-02-15T02:43:38;69.30;;;32.88;;
68256;SDS011;55069;51.568;4.656;2023-02-15T02:46:13;77.13;;;33.00;;
68256;SDS011;55069;51.568;4.656;2023-02-15T02:48:45;66.57;;;32.67;;
68256;SDS011;55069;51.568;4.656;2023-02-15T02:51:13;70.95;;;33.60;;
68256;SDS011;55069;51.568;4.656;2023-02-15T02:53:45;72.93;;;35.47;;
68256;SDS011;55069;51.568;4.656;2023-02-15T02:56:18;81.80;;;34.53;;
68256;SDS011;55069;51.568;4.656;2023-02-15T02:58:51;70.72;;;34.30;;
68256;SDS011;55069;51.568;4.656;2023-02-15T03:01:22;79.45;;;36.35;;
68256;SDS011;55069;51.568;4.656;2023-02-15T03:03:53;76.43;;;34.47;;
68256;SDS011;55069;51.568;4.656;2023-02-15T03:06:37;81.70;;;35.78;;
68256;SDS011;55069;51.568;4.656;2023-02-15T03:09:18;75.97;;;35.33;;
68256;SDS011;55069;51.568;4.656;2023-02-15T03:11:50;71.77;;;32.73;;
68256;SDS011;55069;51.568;4.656;2023-02-15T03:14:16;80.40;;;34.10;;
68256;SDS011;55069;51.568;4.656;2023-02-15T03:16:44;72.05;;;32.00;;
68256;SDS011;55069;51.568;4.656;2023-02-15T03:19:17;74.18;;;34.47;;
68256;SDS011;55069;51.568;4.656;2023-02-15T03:21:50;74.53;;;33.42;;
68256;SDS011;55069;51.568;4.656;2023-02-15T03:27:20;72.50;;;32.30;;
68256;SDS011;55069;51.568;4.656;2023-02-15T03:29:50;71.63;;;32.83;;
68256;SDS011;55069;51.568;4.656;2023-02-15T03:32:19;67.55;;;32.42;;
68256;SDS011;55069;51.568;4.656;2023-02-15T03:34:45;65.55;;;32.85;;
68256;SDS011;55069;51.568;4.656;2023-02-15T03:37:28;72.70;;;32.60;;
68256;SDS011;55069;51.568;4.656;2023-02-15T03:39:59;60.88;;;32.33;;
68256;SDS011;55069;51.568;4.656;2023-02-15T03:42:52;67.20;;;32.00;;
68256;SDS011;55069;51.568;4.656;2023-02-15T03:45:25;71.03;;;32.13;;
68256;SDS011;55069;51.568;4.656;2023-02-15T03:47:56;74.32;;;33.53;;
68256;SDS011;55069;51.568;4.656;2023-02-15T03:50:29;70.03;;;32.38;;
68256;SDS011;55069;51.568;4.656;2023-02-15T03:53:17;66.93;;;31.35;;
68256;SDS011;55069;51.568;4.656;2023-02-15T03:55:49;68.00;;;32.58;;
68256;SDS011;55069;51.568;4.656;2023-02-15T03:58:18;75.53;;;32.95;;
68256;SDS011;55069;51.568;4.656;2023-02-15T04:01:25;68.32;;;32.20;;
68256;SDS011;55069;51.568;4.656;2023-02-15T04:04:19;71.17;;;30.53;;
68256;SDS011;55069;51.568;4.656;2023-02-15T04:06:47;72.22;;;31.48;;
68256;SDS011;55069;51.568;4.656;2023-02-15T04:09:13;68.13;;;31.10;;
68256;SDS011;55069;51.568;4.656;2023-02-15T04:11:57;72.38;;;32.40;;
68256;SDS011;55069;51.568;4.656;2023-02-15T04:14:23;72.90;;;33.08;;
68256;SDS011;55069;51.568;4.656;2023-02-15T04:17:08;64.80;;;32.10;;
68256;SDS011;55069;51.568;4.656;2023-02-15T04:19:33;69.78;;;33.22;;
68256;SDS011;55069;51.568;4.656;2023-02-15T04:22:17;72.28;;;33.25;;
68256;SDS011;55069;51.568;4.656;2023-02-15T04:25:01;65.38;;;31.25;;
68256;SDS011;55069;51.568;4.656;2023-02-15T04:27:37;75.75;;;32.88;;
68256;SDS011;55069;51.568;4.656;2023-02-15T04:30:24;71.45;;;33.10;;
68256;SDS011;55069;51.568;4.656;2023-02-15T04:32:51;68.65;;;32.97;;
68256;SDS011;55069;51.568;4.656;2023-02-15T04:35:17;67.07;;;31.90;;
68256;SDS011;55069;51.568;4.656;2023-02-15T04:37:44;77.53;;;33.75;;
68256;SDS011;55069;51.568;4.656;2023-02-15T04:40:11;70.47;;;32.23;;
68256;SDS011;55069;51.568;4.656;2023-02-15T04:42:38;66.45;;;33.15;;
68256;SDS011;55069;51.568;4.656;2023-02-15T04:45:03;64.30;;;31.27;;
68256;SDS011;55069;51.568;4.656;2023-02-15T04:47:30;74.45;;;34.25;;
68256;SDS011;55069;51.568;4.656;2023-02-15T04:49:55;76.37;;;33.43;;
68256;SDS011;55069;51.568;4.656;2023-02-15T04:52:21;71.70;;;30.95;;
68256;SDS011;55069;51.568;4.656;2023-02-15T04:54:47;80.90;;;32.43;;
68256;SDS011;55069;51.568;4.656;2023-02-15T04:57:13;74.57;;;32.33;;
68256;SDS011;55069;51.568;4.656;2023-02-15T04:59:38;69.67;;;32.13;;
68256;SDS011;55069;51.568;4.656;2023-02-15T05:02:04;77.47;;;34.08;;
68256;SDS011;55069;51.568;4.656;2023-02-15T05:04:29;67.00;;;30.93;;
68256;SDS011;55069;51.568;4.656;2023-02-15T05:06:55;68.67;;;33.00;;
68256;SDS011;55069;51.568;4.656;2023-02-15T05:09:20;71.00;;;32.88;;
68256;SDS011;55069;51.568;4.656;2023-02-15T05:11:46;72.93;;;32.00;;
68256;SDS011;55069;51.568;4.656;2023-02-15T05:14:12;81.27;;;33.77;;
68256;SDS011;55069;51.568;4.656;2023-02-15T05:16:38;73.22;;;32.78;;
68256;SDS011;55069;51.568;4.656;2023-02-15T05:19:03;74.73;;;34.50;;
68256;SDS011;55069;51.568;4.656;2023-02-15T05:21:29;74.00;;;32.75;;
68256;SDS011;55069;51.568;4.656;2023-02-15T05:23:56;77.78;;;34.42;;
68256;SDS011;55069;51.568;4.656;2023-02-15T05:26:22;73.20;;;32.47;;
68256;SDS011;55069;51.568;4.656;2023-02-15T05:29:07;69.05;;;32.10;;
68256;SDS011;55069;51.568;4.656;2023-02-15T05:31:33;67.03;;;31.90;;
68256;SDS011;55069;51.568;4.656;2023-02-15T05:33:59;68.88;;;31.30;;
68256;SDS011;55069;51.568;4.656;2023-02-15T05:36:25;69.65;;;32.25;;
68256;SDS011;55069;51.568;4.656;2023-02-15T05:38:51;64.63;;;31.90;;
68256;SDS011;55069;51.568;4.656;2023-02-15T05:41:16;63.83;;;31.27;;
68256;SDS011;55069;51.568;4.656;2023-02-15T05:43:42;70.95;;;33.28;;
68256;SDS011;55069;51.568;4.656;2023-02-15T05:46:08;70.60;;;32.53;;
68256;SDS011;55069;51.568;4.656;2023-02-15T05:48:34;73.63;;;34.17;;
68256;SDS011;55069;51.568;4.656;2023-02-15T05:51:01;72.97;;;34.67;;
68256;SDS011;55069;51.568;4.656;2023-02-15T05:53:29;76.95;;;33.95;;
68256;SDS011;55069;51.568;4.656;2023-02-15T05:55:56;80.93;;;35.25;;
68256;SDS011;55069;51.568;4.656;2023-02-15T05:58:27;76.50;;;34.92;;
68256;SDS011;55069;51.568;4.656;2023-02-15T06:00:55;83.53;;;34.85;;
68256;SDS011;55069;51.568;4.656;2023-02-15T06:03:21;74.80;;;35.30;;
68256;SDS011;55069;51.568;4.656;2023-02-15T06:05:47;83.13;;;36.35;;
68256;SDS011;55069;51.568;4.656;2023-02-15T06:08:13;73.20;;;33.95;;
68256;SDS011;55069;51.568;4.656;2023-02-15T06:10:38;85.07;;;36.80;;
68256;SDS011;55069;51.568;4.656;2023-02-15T06:13:05;70.35;;;34.25;;
68256;SDS011;55069;51.568;4.656;2023-02-15T06:15:31;67.47;;;32.93;;
68256;SDS011;55069;51.568;4.656;2023-02-15T06:17:57;72.95;;;33.40;;
68256;SDS011;55069;51.568;4.656;2023-02-15T06:20:22;70.43;;;34.30;;
68256;SDS011;55069;51.568;4.656;2023-02-15T06:22:48;69.38;;;33.08;;
68256;SDS011;55069;51.568;4.656;2023-02-15T06:25:13;81.13;;;35.97;;
68256;SDS011;55069;51.568;4.656;2023-02-15T06:27:40;75.20;;;33.77;;
68256;SDS011;55069;51.568;4.656;2023-02-15T06:30:07;78.82;;;35.55;;
68256;SDS011;55069;51.568;4.656;2023-02-15T06:32:33;70.50;;;33.70;;
68256;SDS011;55069;51.568;4.656;2023-02-15T06:34:59;77.63;;;34.88;;
68256;SDS011;55069;51.568;4.656;2023-02-15T06:37:24;64.77;;;32.73;;
68256;SDS011;55069;51.568;4.656;2023-02-15T06:39:50;74.47;;;35.33;;
68256;SDS011;55069;51.568;4.656;2023-02-15T06:42:15;68.60;;;32.95;;
68256;SDS011;55069;51.568;4.656;2023-02-15T06:44:43;81.22;;;34.97;;
68256;SDS011;55069;51.568;4.656;2023-02-15T06:47:08;87.07;;;35.65;;
68256;SDS011;55069;51.568;4.656;2023-02-15T06:49:34;70.45;;;34.50;;
68256;SDS011;55069;51.568;4.656;2023-02-15T06:51:59;77.20;;;34.83;;
68256;SDS011;55069;51.568;4.656;2023-02-15T06:54:25;84.90;;;35.67;;
68256;SDS011;55069;51.568;4.656;2023-02-15T06:56:50;83.47;;;35.80;;
68256;SDS011;55069;51.568;4.656;2023-02-15T06:59:15;70.40;;;35.70;;
68256;SDS011;55069;51.568;4.656;2023-02-15T07:01:41;79.82;;;34.47;;
68256;SDS011;55069;51.568;4.656;2023-02-15T07:04:07;87.30;;;36.40;;
68256;SDS011;55069;51.568;4.656;2023-02-15T07:06:32;86.37;;;36.80;;
68256;SDS011;55069;51.568;4.656;2023-02-15T07:08:58;78.35;;;37.20;;
68256;SDS011;55069;51.568;4.656;2023-02-15T07:11:24;82.60;;;36.25;;
68256;SDS011;55069;51.568;4.656;2023-02-15T07:14:09;77.70;;;35.17;;
68256;SDS011;55069;51.568;4.656;2023-02-15T07:16:35;75.47;;;35.33;;
68256;SDS011;55069;51.568;4.656;2023-02-15T07:19:00;77.50;;;35.40;;
68256;SDS011;55069;51.568;4.656;2023-02-15T07:21:26;83.45;;;37.25;;
68256;SDS011;55069;51.568;4.656;2023-02-15T07:23:55;88.72;;;36.92;;
68256;SDS011;55069;51.568;4.656;2023-02-15T07:26:22;81.88;;;36.58;;
68256;SDS011;55069;51.568;4.656;2023-02-15T07:28:47;83.38;;;38.55;;
68256;SDS011;55069;51.568;4.656;2023-02-15T07:31:13;96.07;;;38.13;;
68256;SDS011;55069;51.568;4.656;2023-02-15T07:33:38;89.97;;;38.10;;
68256;SDS011;55069;51.568;4.656;2023-02-15T07:36:04;83.55;;;37.60;;
68256;SDS011;55069;51.568;4.656;2023-02-15T07:38:34;82.50;;;36.43;;
68256;SDS011;55069;51.568;4.656;2023-02-15T07:41:02;81.75;;;36.55;;
68256;SDS011;55069;51.568;4.656;2023-02-15T07:43:35;86.65;;;38.53;;
68256;SDS011;55069;51.568;4.656;2023-02-15T07:46:04;98.07;;;39.73;;
68256;SDS011;55069;51.568;4.656;2023-02-15T07:48:32;91.45;;;37.13;;
68256;SDS011;55069;51.568;4.656;2023-02-15T07:50:59;85.38;;;38.47;;
68256;SDS011;55069;51.568;4.656;2023-02-15T07:53:25;84.28;;;37.83;;
68256;SDS011;55069;51.568;4.656;2023-02-15T07:55:51;84.50;;;39.58;;
68256;SDS011;55069;51.568;4.656;2023-02-15T07:58:17;100.85;;;42.33;;
68256;SDS011;55069;51.568;4.656;2023-02-15T08:00:43;89.28;;;39.95;;
68256;SDS011;55069;51.568;4.656;2023-02-15T08:03:24;89.95;;;38.95;;
68256;SDS011;55069;51.568;4.656;2023-02-15T08:05:58;92.68;;;40.70;;
68256;SDS011;55069;51.568;4.656;2023-02-15T08:08:26;90.43;;;40.70;;
68256;SDS011;55069;51.568;4.656;2023-02-15T08:10:58;93.63;;;41.97;;
68256;SDS011;55069;51.568;4.656;2023-02-15T08:13:45;93.90;;;42.00;;
68256;SDS011;55069;51.568;4.656;2023-02-15T08:16:20;102.18;;;44.15;;
68256;SDS011;55069;51.568;4.656;2023-02-15T08:18:53;97.35;;;44.40;;
68256;SDS011;55069;51.568;4.656;2023-02-15T08:21:22;103.30;;;43.60;;
68256;SDS011;55069;51.568;4.656;2023-02-15T08:23:48;99.43;;;43.67;;
68256;SDS011;55069;51.568;4.656;2023-02-15T08:26:13;103.33;;;45.73;;
68256;SDS011;55069;51.568;4.656;2023-02-15T08:28:40;108.43;;;44.97;;
68256;SDS011;55069;51.568;4.656;2023-02-15T08:31:13;94.57;;;44.08;;
68256;SDS011;55069;51.568;4.656;2023-02-15T08:33:39;105.93;;;45.80;;
68256;SDS011;55069;51.568;4.656;2023-02-15T08:36:06;100.38;;;46.63;;
68256;SDS011;55069;51.568;4.656;2023-02-15T08:38:34;92.80;;;43.97;;
68256;SDS011;55069;51.568;4.656;2023-02-15T08:43:39;104.43;;;46.40;;
68256;SDS011;55069;51.568;4.656;2023-02-15T08:46:05;114.30;;;45.97;;
68256;SDS011;55069;51.568;4.656;2023-02-15T08:48:31;99.50;;;45.10;;
68256;SDS011;55069;51.568;4.656;2023-02-15T08:50:57;109.82;;;47.15;;
68256;SDS011;55069;51.568;4.656;2023-02-15T08:53:23;110.95;;;47.05;;
68256;SDS011;55069;51.568;4.656;2023-02-15T08:55:58;103.43;;;46.93;;
68256;SDS011;55069;51.568;4.656;2023-02-15T08:58:24;104.05;;;48.13;;
68256;SDS011;55069;51.568;4.656;2023-02-15T09:00:50;104.47;;;46.77;;
68256;SDS011;55069;51.568;4.656;2023-02-15T09:03:15;102.75;;;48.10;;
68256;SDS011;55069;51.568;4.656;2023-02-15T09:05:41;109.18;;;47.95;;
68256;SDS011;55069;51.568;4.656;2023-02-15T09:08:06;108.70;;;48.13;;
68256;SDS011;55069;51.568;4.656;2023-02-15T09:10:32;118.67;;;49.60;;
68256;SDS011;55069;51.568;4.656;2023-02-15T09:12:57;116.03;;;48.13;;
68256;SDS011;55069;51.568;4.656;2023-02-15T09:15:23;101.70;;;45.47;;
68256;SDS011;55069;51.568;4.656;2023-02-15T09:17:48;96.07;;;45.57;;
68256;SDS011;55069;51.568;4.656;2023-02-15T09:20:14;103.60;;;47.20;;
68256;SDS011;55069;51.568;4.656;2023-02-15T09:22:40;98.65;;;46.80;;
68256;SDS011;55069;51.568;4.656;2023-02-15T09:25:05;105.28;;;46.92;;
68256;SDS011;55069;51.568;4.656;2023-02-15T09:27:31;98.83;;;47.77;;
68256;SDS011;55069;51.568;4.656;2023-02-15T09:29:57;95.53;;;47.00;;
68256;SDS011;55069;51.568;4.656;2023-02-15T09:32:22;99.57;;;44.97;;
68256;SDS011;55069;51.568;4.656;2023-02-15T09:34:48;86.00;;;43.33;;
68256;SDS011;55069;51.568;4.656;2023-02-15T09:37:13;85.15;;;43.92;;
68256;SDS011;55069;51.568;4.656;2023-02-15T09:39:40;85.50;;;42.00;;
68256;SDS011;55069;51.568;4.656;2023-02-15T10:01:05;69.47;;;37.03;;
68256;SDS011;55069;51.568;4.656;2023-02-15T10:06:23;73.57;;;35.60;;
68256;SDS011;55069;51.568;4.656;2023-02-15T10:17:21;62.07;;;32.43;;
68256;SDS011;55069;51.568;4.656;2023-02-15T10:28:26;62.90;;;33.10;;
68256;SDS011;55069;51.568;4.656;2023-02-15T10:31:14;68.00;;;32.95;;
68256;SDS011;55069;51.568;4.656;2023-02-15T10:33:48;53.83;;;30.58;;
68256;SDS011;55069;51.568;4.656;2023-02-15T10:36:59;61.92;;;32.33;;
68256;SDS011;55069;51.568;4.656;2023-02-15T10:45:28;57.58;;;30.25;;
68256;SDS011;55069;51.568;4.656;2023-02-15T10:50:49;58.75;;;31.83;;
68256;SDS011;55069;51.568;4.656;2023-02-15T11:07:08;53.67;;;30.00;;
68256;SDS011;55069;51.568;4.656;2023-02-15T11:09:42;62.08;;;31.52;;
68256;SDS011;55069;51.568;4.656;2023-02-15T11:12:13;56.25;;;32.53;;
68256;SDS011;55069;51.568;4.656;2023-02-15T11:14:48;52.70;;;29.80;;
68256;SDS011;55069;51.568;4.656;2023-02-15T11:17:23;50.80;;;29.75;;
68256;SDS011;55069;51.568;4.656;2023-02-15T11:22:30;56.47;;;30.85;;
68256;SDS011;55069;51.568;4.656;2023-02-15T11:24:58;55.88;;;30.30;;
68256;SDS011;55069;51.568;4.656;2023-02-15T11:27:28;55.67;;;30.38;;
68256;SDS011;55069;51.568;4.656;2023-02-15T11:29:59;52.42;;;30.73;;
68256;SDS011;55069;51.568;4.656;2023-02-15T11:32:39;54.37;;;30.20;;
68256;SDS011;55069;51.568;4.656;2023-02-15T11:40:06;51.65;;;29.27;;
68256;SDS011;55069;51.568;4.656;2023-02-15T11:42:46;48.70;;;29.88;;
68256;SDS011;55069;51.568;4.656;2023-02-15T11:45:22;50.47;;;28.63;;
68256;SDS011;55069;51.568;4.656;2023-02-15T11:47:48;53.58;;;29.38;;
68256;SDS011;55069;51.568;4.656;2023-02-15T11:50:15;54.22;;;29.90;;
68256;SDS011;55069;51.568;4.656;2023-02-15T11:52:43;55.03;;;29.20;;
68256;SDS011;55069;51.568;4.656;2023-02-15T11:55:12;47.40;;;28.67;;
68256;SDS011;55069;51.568;4.656;2023-02-15T11:57:42;54.95;;;28.52;;
68256;SDS011;55069;51.568;4.656;2023-02-15T12:02:44;51.70;;;29.23;;
68256;SDS011;55069;51.568;4.656;2023-02-15T12:05:13;51.75;;;29.38;;
68256;SDS011;55069;51.568;4.656;2023-02-15T12:08:03;53.13;;;28.70;;
68256;SDS011;55069;51.568;4.656;2023-02-15T12:13:29;54.95;;;28.98;;
68256;SDS011;55069;51.568;4.656;2023-02-15T12:15:55;48.33;;;28.53;;
68256;SDS011;55069;51.568;4.656;2023-02-15T12:21:05;52.88;;;28.15;;
68256;SDS011;55069;51.568;4.656;2023-02-15T12:23:39;49.28;;;27.35;;
68256;SDS011;55069;51.568;4.656;2023-02-15T12:26:11;48.67;;;27.42;;
68256;SDS011;55069;51.568;4.656;2023-02-15T12:28:38;50.73;;;27.40;;
68256;SDS011;55069;51.568;4.656;2023-02-15T12:31:19;53.17;;;28.35;;
68256;SDS011;55069;51.568;4.656;2023-02-15T12:33:52;51.90;;;29.42;;
68256;SDS011;55069;51.568;4.656;2023-02-15T12:36:20;57.42;;;30.00;;
68256;SDS011;55069;51.568;4.656;2023-02-15T12:39:22;51.38;;;28.60;;
68256;SDS011;55069;51.568;4.656;2023-02-15T12:44:28;52.17;;;28.35;;
68256;SDS011;55069;51.568;4.656;2023-02-15T12:46:57;55.85;;;28.35;;
68256;SDS011;55069;51.568;4.656;2023-02-15T12:49:33;51.40;;;27.85;;
68256;SDS011;55069;51.568;4.656;2023-02-15T12:52:00;49.63;;;27.55;;
68256;SDS011;55069;51.568;4.656;2023-02-15T12:54:32;49.20;;;26.07;;
68256;SDS011;55069;51.568;4.656;2023-02-15T12:59:48;45.97;;;25.67;;
68256;SDS011;55069;51.568;4.656;2023-02-15T13:02:25;50.83;;;25.92;;
68256;SDS011;55069;51.568;4.656;2023-02-15T13:11:11;53.03;;;27.95;;
68256;SDS011;55069;51.568;4.656;2023-02-15T13:13:54;49.95;;;27.38;;
68256;SDS011;55069;51.568;4.656;2023-02-15T13:16:29;47.47;;;26.77;;
68256;SDS011;55069;51.568;4.656;2023-02-15T13:19:10;50.95;;;27.38;;
68256;SDS011;55069;51.568;4.656;2023-02-15T13:21:44;53.80;;;27.17;;
68256;SDS011;55069;51.568;4.656;2023-02-15T13:24:17;46.55;;;27.02;;
68256;SDS011;55069;51.568;4.656;2023-02-15T13:26:56;49.63;;;26.60;;
68256;SDS011;55069;51.568;4.656;2023-02-15T13:29:24;54.47;;;26.90;;
68256;SDS011;55069;51.568;4.656;2023-02-15T13:31:52;49.20;;;27.38;;
68256;SDS011;55069;51.568;4.656;2023-02-15T13:34:28;48.50;;;27.03;;
68256;SDS011;55069;51.568;4.656;2023-02-15T13:37:05;52.63;;;29.00;;
68256;SDS011;55069;51.568;4.656;2023-02-15T13:50:00;54.45;;;28.73;;
68256;SDS011;55069;51.568;4.656;2023-02-15T13:52:51;55.80;;;30.10;;
68256;SDS011;55069;51.568;4.656;2023-02-15T13:55:33;49.75;;;27.67;;
68256;SDS011;55069;51.568;4.656;2023-02-15T13:58:13;50.35;;;28.80;;
68256;SDS011;55069;51.568;4.656;2023-02-15T14:17:18;52.88;;;28.58;;
68256;SDS011;55069;51.568;4.656;2023-02-15T14:19:48;59.07;;;27.27;;
68256;SDS011;55069;51.568;4.656;2023-02-15T14:22:25;53.22;;;31.27;;
68256;SDS011;55069;51.568;4.656;2023-02-15T14:27:54;52.65;;;30.10;;
68256;SDS011;55069;51.568;4.656;2023-02-15T14:30:28;58.00;;;30.30;;
68256;SDS011;55069;51.568;4.656;2023-02-15T14:33:04;51.40;;;28.77;;
68256;SDS011;55069;51.568;4.656;2023-02-15T14:35:33;55.08;;;29.48;;
68256;SDS011;55069;51.568;4.656;2023-02-15T14:48:52;49.55;;;26.98;;
68256;SDS011;55069;51.568;4.656;2023-02-15T14:54:52;49.53;;;26.27;;
68256;SDS011;55069;51.568;4.656;2023-02-15T15:03:07;51.40;;;27.23;;
68256;SDS011;55069;51.568;4.656;2023-02-15T15:07:54;49.00;;;26.17;;
68256;SDS011;55069;51.568;4.656;2023-02-15T15:12:49;48.33;;;28.63;;
68256;SDS011;55069;51.568;4.656;2023-02-15T15:18:04;48.42;;;26.02;;
68256;SDS011;55069;51.568;4.656;2023-02-15T15:20:43;48.03;;;26.42;;
68256;SDS011;55069;51.568;4.656;2023-02-15T15:25:40;49.30;;;25.53;;
68256;SDS011;55069;51.568;4.656;2023-02-15T15:37:09;47.13;;;26.55;;
68256;SDS011;55069;51.568;4.656;2023-02-15T15:39:12;46.85;;;25.23;;
68256;SDS011;55069;51.568;4.656;2023-02-15T15:50:15;48.38;;;26.23;;
68256;SDS011;55069;51.568;4.656;2023-02-15T15:52:48;49.03;;;26.33;;
68256;SDS011;55069;51.568;4.656;2023-02-15T15:55:22;46.63;;;25.92;;
68256;SDS011;55069;51.568;4.656;2023-02-15T15:57:53;52.03;;;27.93;;
68256;SDS011;55069;51.568;4.656;2023-02-15T16:02:54;52.60;;;26.35;;
68256;SDS011;55069;51.568;4.656;2023-02-15T16:05:22;53.88;;;27.95;;
68256;SDS011;55069;51.568;4.656;2023-02-15T16:07:49;53.80;;;28.37;;
68256;SDS011;55069;51.568;4.656;2023-02-15T16:12:47;55.72;;;27.65;;
68256;SDS011;55069;51.568;4.656;2023-02-15T16:15:14;58.20;;;29.00;;
68256;SDS011;55069;51.568;4.656;2023-02-15T16:17:45;54.43;;;29.47;;
68256;SDS011;55069;51.568;4.656;2023-02-15T16:20:18;53.35;;;28.45;;
68256;SDS011;55069;51.568;4.656;2023-02-15T16:22:49;56.70;;;28.50;;
68256;SDS011;55069;51.568;4.656;2023-02-15T16:25:41;45.85;;;26.17;;
68256;SDS011;55069;51.568;4.656;2023-02-15T16:28:27;48.78;;;27.65;;
68256;SDS011;55069;51.568;4.656;2023-02-15T16:33:40;50.60;;;27.20;;
68256;SDS011;55069;51.568;4.656;2023-02-15T16:36:23;53.72;;;28.20;;
68256;SDS011;55069;51.568;4.656;2023-02-15T16:41:21;53.60;;;29.07;;
68256;SDS011;55069;51.568;4.656;2023-02-15T16:43:56;55.80;;;29.13;;
68256;SDS011;55069;51.568;4.656;2023-02-15T16:46:28;56.87;;;29.33;;
68256;SDS011;55069;51.568;4.656;2023-02-15T16:49:05;53.92;;;28.40;;
68256;SDS011;55069;51.568;4.656;2023-02-15T16:51:39;51.00;;;28.15;;
68256;SDS011;55069;51.568;4.656;2023-02-15T16:54:14;50.05;;;28.30;;
68256;SDS011;55069;51.568;4.656;2023-02-15T16:56:42;53.08;;;29.67;;
68256;SDS011;55069;51.568;4.656;2023-02-15T16:59:16;52.77;;;27.17;;
68256;SDS011;55069;51.568;4.656;2023-02-15T17:01:55;51.35;;;29.30;;
68256;SDS011;55069;51.568;4.656;2023-02-15T17:06:59;53.80;;;27.43;;
68256;SDS011;55069;51.568;4.656;2023-02-15T17:09:52;51.42;;;27.90;;
68256;SDS011;55069;51.568;4.656;2023-02-15T17:15:24;48.47;;;26.37;;
68256;SDS011;55069;51.568;4.656;2023-02-15T17:17:51;57.17;;;28.20;;
68256;SDS011;55069;51.568;4.656;2023-02-15T17:20:17;47.28;;;27.10;;
68256;SDS011;55069;51.568;4.656;2023-02-15T17:22:45;48.83;;;27.53;;
68256;SDS011;55069;51.568;4.656;2023-02-15T17:25:18;57.83;;;29.52;;
68256;SDS011;55069;51.568;4.656;2023-02-15T17:27:49;55.65;;;29.20;;
68256;SDS011;55069;51.568;4.656;2023-02-15T17:30:24;56.20;;;28.17;;
68256;SDS011;55069;51.568;4.656;2023-02-15T17:32:55;54.33;;;29.00;;
68256;SDS011;55069;51.568;4.656;2023-02-15T17:35:27;55.30;;;28.25;;
68256;SDS011;55069;51.568;4.656;2023-02-15T17:38:17;52.17;;;27.70;;
68256;SDS011;55069;51.568;4.656;2023-02-15T17:40:44;53.22;;;28.65;;
68256;SDS011;55069;51.568;4.656;2023-02-15T17:43:10;64.77;;;28.73;;
68256;SDS011;55069;51.568;4.656;2023-02-15T17:45:37;52.97;;;26.70;;
68256;SDS011;55069;51.568;4.656;2023-02-15T17:48:09;53.40;;;28.50;;
68256;SDS011;55069;51.568;4.656;2023-02-15T17:50:55;53.58;;;27.65;;
68256;SDS011;55069;51.568;4.656;2023-02-15T17:53:21;51.08;;;28.52;;
68256;SDS011;55069;51.568;4.656;2023-02-15T17:55:46;56.77;;;29.60;;
68256;SDS011;55069;51.568;4.656;2023-02-15T17:58:13;59.53;;;30.43;;
68256;SDS011;55069;51.568;4.656;2023-02-15T18:00:50;56.33;;;30.13;;
68256;SDS011;55069;51.568;4.656;2023-02-15T18:03:47;57.67;;;29.30;;